Time;durP1;ratioP1;P1;durP2;ratioP2;P2;SDS_P1;SDS_P2;PMS_P1;PMS_P2;Temp;Humidity;BMP_temperature;BMP_pressure;BME280_temperature;BME280_humidity;BME280_pressure;Samples;Min_cycle;Max_cycle;Signal;HPM_P1;HPM_P2
2022/09/20 00:00:04;;;;;;;4.33;2.00;;;;;5.10;94472.00;;;;7395376;19;20137;-72
2022/09/20 00:02:38;;;;;;;15.87;2.90;;;;;5.20;94474.00;;;;7394479;19;20818;-73
2022/09/20 00:05:07;;;;;;;4.37;2.23;;;;;5.10;94469.00;;;;7395676;19;20639;-72
2022/09/20 00:07:34;;;;;;;10.13;2.30;;;;;5.10;94472.00;;;;7394991;19;20129;-73
2022/09/20 00:10:08;;;;;;;10.67;2.50;;;;;5.00;94472.00;;;;7397199;19;20665;-73
2022/09/20 00:12:36;;;;;;;8.27;2.33;;;;;5.00;94474.00;;;;7394585;19;20177;-73
2022/09/20 00:15:04;;;;;;;12.87;2.27;;;;;5.10;94470.00;;;;7396035;19;20145;-73
2022/09/20 00:17:38;;;;;;;8.00;2.40;;;;;5.20;94477.00;;;;7394697;19;20610;-73
2022/09/20 00:20:13;;;;;;;10.93;2.80;;;;;5.10;94469.00;;;;7393126;19;20148;-74
2022/09/20 00:22:54;;;;;;;8.87;2.80;;;;;5.10;94470.00;;;;7393161;19;20165;-73
2022/09/20 00:25:21;;;;;;;10.43;2.33;;;;;5.00;94474.00;;;;7396348;19;20141;-73
2022/09/20 00:27:55;;;;;;;7.70;2.37;;;;;5.00;94466.00;;;;7396577;19;20133;-73
2022/09/20 00:30:23;;;;;;;8.63;2.53;;;;;5.00;94467.00;;;;7393619;19;20149;-73
2022/09/20 00:32:50;;;;;;;9.13;2.30;;;;;5.20;94473.00;;;;7396785;19;20465;-73
2022/09/20 00:35:24;;;;;;;6.90;2.50;;;;;5.30;94468.00;;;;7394762;19;20208;-72
2022/09/20 00:37:52;;;;;;;7.07;2.23;;;;;5.20;94467.00;;;;7395759;19;20137;-73
2022/09/20 00:40:21;;;;;;;9.47;2.70;;;;;5.30;94466.00;;;;7389821;19;20132;-73
2022/09/20 00:42:55;;;;;;;11.87;2.80;;;;;5.40;94463.00;;;;7397257;19;20139;-72
2022/09/20 00:45:32;;;;;;;5.00;2.10;;;;;5.60;94465.00;;;;7395271;19;20157;-74
2022/09/20 00:48:14;;;;;;;8.03;2.47;;;;;5.70;94462.00;;;;7394796;19;20156;-72
2022/09/20 00:51:10;;;;;;;10.10;2.90;;;;;5.60;94461.00;;;;7390356;19;20614;-74
2022/09/20 00:53:49;;;;;;;15.97;2.57;;;;;5.50;94462.00;;;;7392399;19;20160;-73
2022/09/20 00:56:28;;;;;;;7.40;2.53;;;;;5.60;94459.00;;;;7391327;19;20200;-72
2022/09/20 00:59:11;;;;;;;6.47;2.10;;;;;5.40;94465.00;;;;7397622;19;20128;-72
2022/09/20 01:01:38;;;;;;;3.80;2.30;;;;;5.40;94456.00;;;;7392234;19;20204;-73
2022/09/20 01:04:14;;;;;;;10.03;2.70;;;;;5.50;94463.00;;;;7395481;19;20133;-74
2022/09/20 01:06:44;;;;;;;12.43;2.53;;;;;5.60;94462.00;;;;7393220;19;20145;-73
2022/09/20 01:09:13;;;;;;;9.23;2.53;;;;;5.50;94462.00;;;;7394891;19;20151;-72
2022/09/20 01:11:49;;;;;;;8.33;2.40;;;;;5.40;94463.00;;;;7392970;19;20239;-73
2022/09/20 01:14:22;;;;;;;7.07;3.07;;;;;5.40;94458.00;;;;7395283;19;20583;-75
2022/09/20 01:16:59;;;;;;;7.37;2.50;;;;;5.50;94460.00;;;;7395193;19;20667;-73
2022/09/20 01:19:52;;;;;;;12.70;2.53;;;;;5.60;94462.00;;;;7393253;19;20192;-73
2022/09/20 01:23:02;;;;;;;10.10;3.03;;;;;5.50;94465.00;;;;7394128;19;20148;-72
2022/09/20 01:26:10;;;;;;;11.63;2.43;;;;;5.60;94473.00;;;;7389569;19;20554;-74
2022/09/20 01:28:47;;;;;;;13.80;2.30;;;;;5.50;94466.00;;;;7391369;19;20141;-73
2022/09/20 01:31:32;;;;;;;12.27;2.30;;;;;5.40;94467.00;;;;7392645;19;20157;-73
2022/09/20 01:34:16;;;;;;;8.20;2.63;;;;;5.60;94462.00;;;;7392595;19;20128;-74
2022/09/20 01:36:55;;;;;;;5.87;2.30;;;;;5.50;94463.00;;;;7393690;19;20157;-73
2022/09/20 01:39:49;;;;;;;3.97;1.80;;;;;5.30;94456.00;;;;7397286;19;20575;-73
2022/09/20 01:42:17;;;;;;;11.27;2.93;;;;;5.70;94462.00;;;;7391120;19;20159;-73
2022/09/20 01:45:02;;;;;;;10.77;2.73;;;;;5.70;94460.00;;;;7391088;19;20641;-74
2022/09/20 01:47:43;;;;;;;7.87;2.40;;;;;5.70;94459.00;;;;7392593;19;20117;-73
2022/09/20 01:50:20;;;;;;;7.40;2.87;;;;;5.50;94452.00;;;;7393036;19;20123;-73
2022/09/20 01:53:26;;;;;;;8.73;2.30;;;;;5.50;94452.00;;;;7393978;19;20125;-73
2022/09/20 01:56:31;;;;;;;9.23;2.43;;;;;5.60;94444.00;;;;7388878;19;20137;-74
2022/09/20 01:59:23;;;;;;;8.53;2.20;;;;;5.60;94448.00;;;;7393753;19;20129;-74
2022/09/20 02:02:31;;;;;;;7.00;2.23;;;;;5.60;94445.00;;;;7392624;19;20125;-73
2022/09/20 02:05:37;;;;;;;9.30;2.50;;;;;5.70;94435.00;;;;7391084;19;20139;-74
2022/09/20 02:08:34;;;;;;;6.30;2.40;;;;;5.50;94438.00;;;;7390938;19;20224;-76
2022/09/20 02:11:40;;;;;;;8.33;3.10;;;;;5.80;94434.00;;;;7391966;19;20160;-74
2022/09/20 02:14:30;;;;;;;8.03;2.53;;;;;5.90;94438.00;;;;7391627;19;20144;-73
2022/09/20 02:17:17;;;;;;;6.80;2.47;;;;;5.90;94432.00;;;;7391048;19;20680;-73
2022/09/20 02:20:00;;;;;;;7.03;2.50;;;;;5.90;94440.00;;;;7393793;19;20448;-74
2022/09/20 02:22:52;;;;;;;14.80;4.03;;;;;6.20;94442.00;;;;7388157;19;20164;-73
2022/09/20 02:25:44;;;;;;;8.30;2.60;;;;;6.00;94438.00;;;;7393817;19;20153;-75
2022/09/20 02:28:35;;;;;;;6.73;2.57;;;;;6.10;94439.00;;;;7391979;19;20154;-74
2022/09/20 02:31:09;;;;;;;11.73;2.27;;;;;5.80;94439.00;;;;7393218;19;20499;-73
2022/09/20 02:33:53;;;;;;;8.93;2.20;;;;;5.70;94440.00;;;;7391654;19;20135;-73
2022/09/20 02:36:57;;;;;;;10.27;2.30;;;;;5.70;94435.00;;;;7391469;19;20373;-73
2022/09/20 02:39:52;;;;;;;14.23;2.77;;;;;5.60;94440.00;;;;7390678;19;20148;-73
2022/09/20 02:42:43;;;;;;;6.93;2.03;;;;;5.50;94443.00;;;;7394123;19;20142;-73
2022/09/20 02:45:25;;;;;;;4.23;2.03;;;;;5.50;94432.00;;;;7392897;19;20129;-74
2022/09/20 02:48:03;;;;;;;9.13;2.47;;;;;5.70;94429.00;;;;7398229;19;20584;-74
2022/09/20 02:50:37;;;;;;;10.27;2.43;;;;;5.70;94432.00;;;;7391345;19;20624;-73
2022/09/20 02:53:38;;;;;;;6.73;2.10;;;;;5.70;94444.00;;;;7389966;19;20469;-74
2022/09/20 02:56:09;;;;;;;6.80;2.10;;;;;5.40;94450.00;;;;7390448;19;20180;-73
2022/09/20 02:59:11;;;;;;;12.63;2.10;;;;;5.50;94444.00;;;;7390725;19;20248;-74
2022/09/20 03:02:00;;;;;;;2.80;1.90;;;;;5.40;94445.00;;;;7388776;19;20155;-73
2022/09/20 03:05:15;;;;;;;5.17;2.03;;;;;5.50;94455.00;;;;7395814;19;20148;-74
2022/09/20 03:08:05;;;;;;;8.20;2.10;;;;;5.50;94443.00;;;;7397894;19;20680;-73
2022/09/20 03:10:54;;;;;;;11.70;2.87;;;;;5.60;94446.00;;;;7393088;19;20135;-74
2022/09/20 03:13:31;;;;;;;3.33;2.00;;;;;5.70;94442.00;;;;7393960;19;20523;-73
2022/09/20 03:16:23;;;;;;;13.10;2.40;;;;;5.80;94439.00;;;;7398873;19;20140;-73
2022/09/20 03:19:32;;;;;;;6.80;2.57;;;;;5.90;94440.00;;;;7396823;19;20200;-73
2022/09/20 03:22:46;;;;;;;7.77;2.40;;;;;5.90;94446.00;;;;7398339;19;20174;-74
2022/09/20 03:25:48;;;;;;;10.53;2.50;;;;;6.00;94448.00;;;;7397680;19;20587;-74
2022/09/20 03:28:31;;;;;;;7.07;2.83;;;;;6.20;94444.00;;;;7401521;19;20133;-74
2022/09/20 03:31:27;;;;;;;5.20;2.60;;;;;6.00;94455.00;;;;7397524;19;20192;-73
2022/09/20 03:34:45;;;;;;;10.83;2.10;;;;;5.70;94451.00;;;;7396559;19;20155;-74
2022/09/20 03:37:42;;;;;;;7.47;2.47;;;;;5.90;94452.00;;;;7395793;19;20876;-74
2022/09/20 03:40:36;;;;;;;5.63;2.20;;;;;6.10;94459.00;;;;7393401;19;20145;-73
2022/09/20 03:43:23;;;;;;;9.37;2.67;;;;;5.90;94448.00;;;;7398857;19;20137;-73
2022/09/20 03:46:07;;;;;;;6.27;2.20;;;;;6.00;94457.00;;;;7395895;19;20121;-73
2022/09/20 03:49:03;;;;;;;9.70;2.40;;;;;5.90;94457.00;;;;7395149;19;20672;-72
2022/09/20 03:51:55;;;;;;;10.50;2.37;;;;;6.00;94460.00;;;;7396423;19;20140;-73
2022/09/20 03:55:22;;;;;;;6.10;2.97;;;;;6.20;94463.00;;;;7395769;19;20592;-74
2022/09/20 03:58:15;;;;;;;7.83;2.97;;;;;6.10;94464.00;;;;7396522;19;20475;-74
2022/09/20 04:01:16;;;;;;;5.23;2.33;;;;;6.00;94468.00;;;;7394151;19;20149;-74
2022/09/20 04:04:18;;;;;;;9.00;2.80;;;;;6.20;94470.00;;;;7395443;19;20627;-74
2022/09/20 04:07:00;;;;;;;6.03;2.40;;;;;6.40;94472.00;;;;7397188;19;20647;-73
2022/09/20 04:09:53;;;;;;;5.87;3.00;;;;;6.40;94472.00;;;;7395739;19;20141;-73
2022/09/20 04:12:27;;;;;;;5.93;2.97;;;;;6.50;94470.00;;;;7395994;19;20169;-73
2022/09/20 04:15:31;;;;;;;6.33;2.43;;;;;6.70;94474.00;;;;7394635;19;20133;-74
2022/09/20 04:18:11;;;;;;;8.10;3.20;;;;;6.70;94468.00;;;;7394149;19;20129;-73
2022/09/20 04:20:58;;;;;;;9.67;3.43;;;;;6.70;94460.00;;;;7395639;19;20537;-73
2022/09/20 04:23:47;;;;;;;6.83;3.03;;;;;6.80;94463.00;;;;7396945;19;20156;-73
2022/09/20 04:26:31;;;;;;;4.83;2.77;;;;;6.80;94472.00;;;;7396882;19;20161;-74
2022/09/20 04:29:33;;;;;;;10.30;2.70;;;;;6.90;94472.00;;;;7395114;19;20117;-73
2022/09/20 04:32:32;;;;;;;8.87;2.50;;;;;6.80;94477.00;;;;7395969;19;20184;-73
2022/09/20 04:37:55;;;;;;;11.17;2.87;;;;;6.90;94479.00;;;;7393873;19;20137;-74
2022/09/20 04:40:46;;;;;;;11.47;3.50;;;;;7.00;94487.00;;;;7392777;19;20212;-73
2022/09/20 04:43:51;;;;;;;10.10;2.60;;;;;7.00;94479.00;;;;7393283;19;20240;-73
2022/09/20 04:46:52;;;;;;;9.07;2.83;;;;;7.00;94484.00;;;;7392823;19;20643;-74
2022/09/20 04:50:06;;;;;;;7.30;3.27;;;;;7.00;94486.00;;;;7396096;19;20151;-73
2022/09/20 04:53:06;;;;;;;6.07;3.00;;;;;7.00;94493.00;;;;7394040;19;20121;-73
2022/09/20 04:55:53;;;;;;;10.50;2.97;;;;;7.10;94496.00;;;;7399264;19;20591;-73
2022/09/20 04:58:37;;;;;;;7.40;2.57;;;;;7.00;94492.00;;;;7390988;19;20164;-75
2022/09/20 05:01:18;;;;;;;6.50;2.90;;;;;7.10;94491.00;;;;7394799;19;20149;-74
2022/09/20 05:04:23;;;;;;;8.93;2.80;;;;;7.10;94499.00;;;;7394875;19;20156;-73
2022/09/20 05:07:44;;;;;;;4.77;2.27;;;;;7.10;94501.00;;;;7393150;19;20148;-75
2022/09/20 05:10:20;;;;;;;11.50;2.97;;;;;7.10;94509.00;;;;7397202;19;20154;-73
2022/09/20 05:13:13;;;;;;;11.83;3.60;;;;;6.90;94498.00;;;;7391108;19;20640;-75
2022/09/20 05:15:49;;;;;;;14.47;3.97;;;;;7.00;94511.00;;;;7397584;19;20144;-73
2022/09/20 05:18:50;;;;;;;9.23;3.60;;;;;7.00;94516.00;;;;7392690;19;20128;-73
2022/09/20 05:21:37;;;;;;;14.03;3.70;;;;;7.00;94517.00;;;;7389362;19;20145;-74
2022/09/20 05:24:48;;;;;;;8.60;3.90;;;;;6.90;94525.00;;;;7392584;19;20511;-75
2022/09/20 05:27:36;;;;;;;12.80;3.97;;;;;6.80;94523.00;;;;7390583;19;20625;-73
2022/09/20 05:30:36;;;;;;;7.50;3.60;;;;;6.80;94523.00;;;;7394336;19;20129;-75
2022/09/20 05:33:32;;;;;;;8.77;3.87;;;;;6.70;94517.00;;;;7392004;19;20204;-76
2022/09/20 05:36:16;;;;;;;9.70;3.70;;;;;6.70;94517.00;;;;7396071;19;20609;-75
2022/09/20 05:38:53;;;;;;;11.47;4.33;;;;;6.70;94520.00;;;;7393209;19;20166;-73
2022/09/20 05:41:41;;;;;;;13.87;4.60;;;;;6.90;94521.00;;;;7389368;19;20137;-74
2022/09/20 05:44:25;;;;;;;14.83;4.20;;;;;6.90;94530.00;;;;7391859;19;20123;-74
2022/09/20 05:47:08;;;;;;;9.50;3.73;;;;;6.90;94523.00;;;;7392082;19;20129;-73
2022/09/20 05:49:44;;;;;;;6.70;3.87;;;;;7.00;94524.00;;;;7395880;19;20134;-73
2022/09/20 05:52:31;;;;;;;11.43;3.73;;;;;7.10;94522.00;;;;7391010;19;20143;-73
2022/09/20 05:55:26;;;;;;;22.33;11.47;;;;;7.10;94526.00;;;;7395820;19;20132;-72
2022/09/20 05:58:20;;;;;;;20.60;10.87;;;;;7.20;94526.00;;;;7390961;19;20751;-73
2022/09/20 06:01:12;;;;;;;14.37;6.70;;;;;7.00;94525.00;;;;7395578;19;20136;-74
2022/09/20 06:03:54;;;;;;;12.13;4.30;;;;;6.90;94527.00;;;;7391180;19;20159;-75
2022/09/20 06:06:44;;;;;;;7.57;3.47;;;;;7.10;94533.00;;;;7393931;19;20167;-76
2022/09/20 06:10:06;;;;;;;10.53;3.10;;;;;7.10;94536.00;;;;7390629;19;20144;-75
2022/09/20 06:12:57;;;;;;;6.63;3.40;;;;;7.10;94538.00;;;;7387443;19;20144;-73
2022/09/20 06:15:46;;;;;;;10.80;3.90;;;;;7.40;94537.00;;;;7392651;19;20157;-74
2022/09/20 06:18:30;;;;;;;10.50;3.57;;;;;7.40;94537.00;;;;7391839;19;20137;-74
2022/09/20 06:21:30;;;;;;;8.90;3.43;;;;;7.30;94531.00;;;;7393687;19;20149;-73
2022/09/20 06:24:31;;;;;;;12.37;3.70;;;;;7.60;94526.00;;;;7390284;19;20657;-73
2022/09/20 06:27:14;;;;;;;13.53;4.30;;;;;7.90;94531.00;;;;7392439;19;20160;-74
2022/09/20 06:29:47;;;;;;;13.20;4.00;;;;;8.00;94518.00;;;;7392221;19;20125;-75
2022/09/20 06:32:21;;;;;;;10.23;3.50;;;;;8.20;94523.00;;;;7393073;19;20139;-74
2022/09/20 06:34:49;;;;;;;11.00;3.57;;;;;8.40;94526.00;;;;7394424;19;20615;-73
2022/09/20 06:43:38;;;;;;;9.80;3.47;;;;;8.50;94528.00;;;;7392463;19;20149;-73
2022/09/20 06:46:14;;;;;;;16.80;3.93;;;;;8.60;94532.00;;;;7390006;19;20131;-74
2022/09/20 06:48:41;;;;;;;9.10;3.00;;;;;8.70;94525.00;;;;7391731;19;20138;-73
2022/09/20 06:51:09;;;;;;;10.97;2.70;;;;;8.80;94529.00;;;;7390028;19;20140;-74
2022/09/20 06:53:43;;;;;;;12.47;2.27;;;;;9.10;94530.00;;;;7389219;19;20257;-74
2022/09/20 06:56:23;;;;;;;8.53;2.20;;;;;9.10;94527.00;;;;7389401;19;20148;-75
2022/09/20 06:58:58;;;;;;;8.13;2.37;;;;;9.20;94535.00;;;;7391930;19;20612;-74
2022/09/20 07:01:25;;;;;;;9.13;2.30;;;;;9.30;94526.00;;;;7389965;19;20152;-73
2022/09/20 07:03:57;;;;;;;5.87;1.80;;;;;9.40;94521.00;;;;7390208;19;20125;-73
2022/09/20 07:06:32;;;;;;;8.45;1.75;;;;;9.50;94532.00;;;;7394394;19;20143;-73
2022/09/20 07:09:00;;;;;;;11.43;2.47;;;;;9.60;94525.00;;;;7391689;19;20145;-74
2022/09/20 07:11:28;;;;;;;11.25;2.45;;;;;9.70;94530.00;;;;7391843;19;21045;-74
2022/09/20 07:14:03;;;;;;;9.32;2.30;;;;;9.80;94518.00;;;;7388816;19;20239;-74
2022/09/20 07:16:30;;;;;;;11.63;2.08;;;;;9.90;94523.00;;;;7391682;19;20630;-74
2022/09/20 07:18:58;;;;;;;12.47;2.00;;;;;10.00;94533.00;;;;7391244;19;20145;-75
2022/09/20 07:21:39;;;;;;;9.20;2.42;;;;;10.20;94529.00;;;;7390718;19;20176;-75
2022/09/20 07:24:13;;;;;;;8.40;2.15;;;;;10.30;94532.00;;;;7392471;19;20132;-75
2022/09/20 07:26:58;;;;;;;13.25;2.17;;;;;10.20;94538.00;;;;7392323;19;20182;-73
2022/09/20 07:29:28;;;;;;;9.65;1.98;;;;;10.20;94540.00;;;;7391005;19;20695;-75
2022/09/20 07:32:03;;;;;;;5.32;1.80;;;;;10.10;94533.00;;;;7389639;19;20164;-74
2022/09/20 07:34:31;;;;;;;5.55;2.00;;;;;10.20;94543.00;;;;7386477;19;20145;-73
2022/09/20 07:37:01;;;;;;;7.88;2.00;;;;;10.00;94534.00;;;;7391673;19;20204;-74
2022/09/20 07:39:34;;;;;;;14.95;2.22;;;;;10.20;94543.00;;;;7390488;19;20220;-73
2022/09/20 07:42:05;;;;;;;5.78;1.80;;;;;10.30;94545.00;;;;7387279;19;20517;-73
2022/09/20 07:44:32;;;;;;;9.43;2.58;;;;;10.50;94554.00;;;;7389863;19;20137;-74
2022/09/20 07:47:08;;;;;;;11.93;2.10;;;;;10.90;94548.00;;;;7387950;19;20192;-73
2022/09/20 07:49:36;;;;;;;6.95;2.20;;;;;11.00;94544.00;;;;7393187;19;20600;-74
2022/09/20 07:52:03;;;;;;;8.65;2.15;;;;;11.00;94558.00;;;;7395804;19;20660;-72
2022/09/20 07:54:38;;;;;;;8.65;1.80;;;;;11.20;94555.00;;;;7395791;19;20491;-73
2022/09/20 07:57:06;;;;;;;8.82;1.98;;;;;11.20;94571.00;;;;7395652;19;20618;-73
2022/09/20 07:59:33;;;;;;;5.70;1.60;;;;;10.90;94560.00;;;;7394469;19;20204;-73
2022/09/20 08:02:14;;;;;;;6.88;1.35;;;;;11.20;94569.00;;;;7392260;19;20159;-73
2022/09/20 08:04:42;;;;;;;12.63;2.33;;;;;11.50;94570.00;;;;7399259;19;20608;-74
2022/09/20 08:07:16;;;;;;;5.95;1.75;;;;;11.40;94566.00;;;;7396890;19;20623;-73
2022/09/20 08:09:43;;;;;;;6.35;1.90;;;;;11.10;94578.00;;;;7398133;19;20148;-73
2022/09/20 08:12:12;;;;;;;6.25;1.77;;;;;10.60;94594.00;;;;7396703;19;20169;-75
2022/09/20 08:15:07;;;;;;;8.73;1.70;;;;;10.70;94585.00;;;;7394585;19;20161;-73
2022/09/20 08:17:39;;;;;;;7.65;2.00;;;;;11.10;94593.00;;;;7396829;19;20125;-73
2022/09/20 08:20:13;;;;;;;9.85;1.85;;;;;10.30;94575.00;;;;7392996;19;20141;-74
2022/09/20 08:22:46;;;;;;;6.28;1.70;;;;;10.90;94597.00;;;;7395319;19;20708;-74
2022/09/20 08:25:40;;;;;;;7.13;1.95;;;;;10.70;94585.00;;;;7397295;19;20152;-74
2022/09/20 08:28:08;;;;;;;5.55;1.60;;;;;11.30;94586.00;;;;7395888;19;20131;-74
2022/09/20 08:30:42;;;;;;;4.60;1.42;;;;;11.80;94585.00;;;;7397070;19;20136;-73
2022/09/20 08:33:12;;;;;;;8.88;2.03;;;;;12.30;94588.00;;;;7391560;19;20596;-74
2022/09/20 08:35:39;;;;;;;4.80;1.38;;;;;12.40;94575.00;;;;7398683;19;20129;-73
2022/09/20 08:38:12;;;;;;;5.00;1.38;;;;;12.30;94580.00;;;;7395924;19;20129;-74
2022/09/20 08:41:06;;;;;;;6.25;1.40;;;;;12.70;94581.00;;;;7394799;19;20609;-74
2022/09/20 08:43:54;;;;;;;7.13;1.42;;;;;12.20;94568.00;;;;7392692;19;20748;-74
2022/09/20 08:46:39;;;;;;;5.30;1.25;;;;;11.90;94588.00;;;;7393174;19;20149;-73
2022/09/20 08:49:32;;;;;;;6.78;1.50;;;;;12.10;94585.00;;;;7393675;19;20156;-75
2022/09/20 08:52:02;;;;;;;7.63;1.40;;;;;12.30;94578.00;;;;7396603;19;20802;-71
2022/09/20 08:54:37;;;;;;;3.67;1.30;;;;;12.20;94587.00;;;;7392533;19;20148;-72
2022/09/20 08:57:14;;;;;;;4.40;1.10;;;;;11.50;94584.00;;;;7396673;19;20207;-75
2022/09/20 08:59:50;;;;;;;4.55;1.33;;;;;11.40;94593.00;;;;7393951;19;20664;-75
2022/09/20 09:02:20;;;;;;;5.82;1.50;;;;;11.90;94583.00;;;;7392880;19;20144;-75
2022/09/20 09:04:50;;;;;;;6.60;1.30;;;;;12.50;94572.00;;;;7392379;19;20169;-73
2022/09/20 09:07:25;;;;;;;4.75;1.42;;;;;12.90;94576.00;;;;7397420;19;20129;-74
2022/09/20 09:09:55;;;;;;;4.70;1.50;;;;;12.40;94579.00;;;;7392377;19;20136;-73
2022/09/20 09:12:27;;;;;;;2.83;1.13;;;;;12.00;94594.00;;;;7390111;19;20267;-73
2022/09/20 09:15:33;;;;;;;6.95;1.70;;;;;11.40;94593.00;;;;7392929;19;20132;-73
2022/09/20 09:18:16;;;;;;;4.32;1.52;;;;;11.60;94586.00;;;;7393100;19;20755;-74
2022/09/20 09:20:58;;;;;;;8.55;1.70;;;;;12.00;94573.00;;;;7393740;19;20176;-74
2022/09/20 09:23:40;;;;;;;9.77;1.67;;;;;13.30;94581.00;;;;7390425;19;20144;-73
2022/09/20 09:26:22;;;;;;;5.72;1.80;;;;;13.50;94582.00;;;;7396561;19;20148;-73
2022/09/20 09:29:14;;;;;;;4.72;1.23;;;;;12.50;94588.00;;;;7392397;19;20138;-74
2022/09/20 09:31:53;;;;;;;6.25;1.50;;;;;12.20;94591.00;;;;7393485;19;20464;-74
2022/09/20 09:34:30;;;;;;;4.35;1.42;;;;;11.70;94594.00;;;;7393164;19;20156;-74
2022/09/20 09:37:04;;;;;;;8.30;1.50;;;;;11.50;94597.00;;;;7395454;19;20128;-75
2022/09/20 09:39:37;;;;;;;6.47;1.30;;;;;11.50;94581.00;;;;7391662;19;20136;-73
2022/09/20 09:42:24;;;;;;;6.45;1.70;;;;;12.10;94582.00;;;;7391746;19;20162;-75
2022/09/20 09:44:52;;;;;;;7.68;1.40;;;;;12.90;94584.00;;;;7391801;19;20199;-73
2022/09/20 09:47:27;;;;;;;5.93;1.55;;;;;13.00;94572.00;;;;7393599;19;20158;-73
2022/09/20 09:49:58;;;;;;;4.68;1.67;;;;;13.90;94587.00;;;;7390101;19;20129;-72
2022/09/20 09:52:32;;;;;;;3.05;1.15;;;;;13.30;94582.00;;;;7389691;19;20144;-73
2022/09/20 09:55:12;;;;;;;5.03;1.10;;;;;12.70;94589.00;;;;7391001;19;20136;-73
2022/09/20 09:58:02;;;;;;;4.22;1.17;;;;;12.40;94591.00;;;;7390991;19;20746;-73
2022/09/20 10:00:44;;;;;;;3.10;1.08;;;;;12.40;94576.00;;;;7391904;19;20117;-73
2022/09/20 10:03:14;;;;;;;7.20;1.40;;;;;13.20;94571.00;;;;7389356;19;21032;-73
2022/09/20 10:06:17;;;;;;;4.20;1.20;;;;;13.20;94574.00;;;;7389846;19;20205;-72
2022/09/20 10:09:05;;;;;;;3.42;1.35;;;;;12.50;94578.00;;;;7390556;19;20132;-73
2022/09/20 10:11:57;;;;;;;6.22;1.50;;;;;12.10;94585.00;;;;7388232;19;20915;-73
2022/09/20 10:14:46;;;;;;;3.75;1.40;;;;;12.30;94583.00;;;;7391411;19;20131;-75
2022/09/20 10:17:25;;;;;;;6.28;1.58;;;;;13.00;94573.00;;;;7390355;19;20610;-72
2022/09/20 10:20:07;;;;;;;4.45;1.40;;;;;13.60;94573.00;;;;7392455;19;20211;-72
2022/09/20 10:23:00;;;;;;;2.60;0.90;;;;;14.00;94578.00;;;;7389147;19;20148;-73
2022/09/20 10:26:12;;;;;;;4.93;1.25;;;;;13.50;94578.00;;;;7390502;19;20178;-71
2022/09/20 10:29:14;;;;;;;4.07;1.20;;;;;13.40;94582.00;;;;7395004;19;20139;-72
2022/09/20 10:31:44;;;;;;;1.98;0.90;;;;;13.00;94580.00;;;;7395910;19;20499;-72
2022/09/20 10:34:49;;;;;;;5.50;1.20;;;;;12.60;94594.00;;;;7394526;19;20614;-73
2022/09/20 10:37:20;;;;;;;4.05;0.90;;;;;12.40;94584.00;;;;7392843;19;20176;-74
2022/09/20 10:40:14;;;;;;;5.18;1.40;;;;;12.10;94593.00;;;;7391758;19;20579;-73
2022/09/20 10:43:15;;;;;;;3.15;1.02;;;;;12.10;94597.00;;;;7389096;19;20188;-76
2022/09/20 10:46:10;;;;;;;4.47;1.17;;;;;12.00;94595.00;;;;7389346;19;20161;-74
2022/09/20 10:49:33;;;;;;;6.13;1.20;;;;;12.20;94589.00;;;;7393597;19;20226;-73
2022/09/20 10:52:30;;;;;;;5.57;1.50;;;;;12.30;94591.00;;;;7392491;19;20619;-74
2022/09/20 10:55:29;;;;;;;4.25;1.33;;;;;12.40;94591.00;;;;7392478;19;20148;-73
2022/09/20 10:58:37;;;;;;;3.30;1.20;;;;;12.50;94590.00;;;;7391600;19;20224;-74
2022/09/20 11:01:32;;;;;;;5.25;1.40;;;;;12.60;94595.00;;;;7388740;19;20636;-73
2022/09/20 11:04:25;;;;;;;4.07;1.60;;;;;12.70;94597.00;;;;7385102;19;20611;-73
2022/09/20 11:07:10;;;;;;;3.72;1.10;;;;;12.90;94600.00;;;;7387219;19;20208;-73
2022/09/20 11:10:19;;;;;;;3.20;1.20;;;;;12.70;94589.00;;;;7387448;19;20137;-73
2022/09/20 11:13:01;;;;;;;3.95;0.98;;;;;12.60;94594.00;;;;7388496;19;20164;-73
2022/09/20 11:15:51;;;;;;;4.57;1.27;;;;;12.90;94597.00;;;;7388928;19;20615;-73
2022/09/20 11:18:45;;;;;;;5.15;1.40;;;;;12.80;94586.00;;;;7388407;19;20608;-72
2022/09/20 11:21:42;;;;;;;7.13;1.40;;;;;13.10;94595.00;;;;7390116;19;20169;-72
2022/09/20 11:24:34;;;;;;;3.70;1.13;;;;;12.80;94588.00;;;;7389803;19;20139;-73
2022/09/20 11:27:19;;;;;;;4.63;1.10;;;;;13.00;94590.00;;;;7396139;19;20137;-73
2022/09/20 11:30:00;;;;;;;7.40;1.48;;;;;12.60;94601.00;;;;7395212;19;20141;-73
2022/09/20 11:33:00;;;;;;;4.28;1.13;;;;;13.20;94598.00;;;;7395958;19;20148;-73
2022/09/20 11:35:46;;;;;;;4.05;1.13;;;;;13.20;94596.00;;;;7393521;19;20141;-73
2022/09/20 11:38:51;;;;;;;3.72;1.15;;;;;12.80;94594.00;;;;7393305;19;20125;-71
2022/09/20 11:41:27;;;;;;;3.45;1.17;;;;;12.70;94598.00;;;;7394644;19;20592;-70
2022/09/20 11:44:06;;;;;;;4.50;1.45;;;;;12.60;94595.00;;;;7394917;19;20129;-73
2022/09/20 11:47:03;;;;;;;5.82;1.38;;;;;12.40;94600.00;;;;7395102;19;20145;-72
2022/09/20 11:49:51;;;;;;;7.47;1.63;;;;;12.30;94608.00;;;;7394993;19;20608;-72
2022/09/20 11:52:39;;;;;;;2.70;1.20;;;;;12.10;94611.00;;;;7396740;19;20149;-73
2022/09/20 11:55:41;;;;;;;4.47;2.05;;;;;12.30;94609.00;;;;7395187;19;20162;-73
2022/09/20 11:58:19;;;;;;;3.70;1.52;;;;;12.50;94604.00;;;;7395951;19;20624;-72
2022/09/20 12:00:57;;;;;;;4.20;1.52;;;;;12.10;94607.00;;;;7398943;19;20580;-73
2022/09/20 12:03:36;;;;;;;4.03;1.20;;;;;12.30;94600.00;;;;7396695;19;20144;-72
2022/09/20 12:07:00;;;;;;;4.35;1.55;;;;;12.40;94603.00;;;;7396170;19;20758;-74
2022/09/20 12:09:39;;;;;;;4.05;1.23;;;;;12.30;94598.00;;;;7391037;19;20167;-73
2022/09/20 12:12:41;;;;;;;3.10;1.20;;;;;12.80;94596.00;;;;7389951;19;20222;-74
2022/09/20 12:15:33;;;;;;;4.70;1.50;;;;;13.20;94586.00;;;;7393569;19;20676;-72
2022/09/20 12:18:53;;;;;;;3.08;1.15;;;;;12.90;94578.00;;;;7393878;19;20592;-74
2022/09/20 12:21:22;;;;;;;7.90;1.30;;;;;13.00;94587.00;;;;7394637;19;20157;-74
2022/09/20 12:24:20;;;;;;;3.25;1.30;;;;;13.40;94575.00;;;;7391833;19;20132;-73
2022/09/20 12:26:48;;;;;;;4.15;1.48;;;;;12.90;94568.00;;;;7396395;19;20237;-75
2022/09/20 12:29:25;;;;;;;4.07;1.40;;;;;13.40;94553.00;;;;7395110;19;20204;-73
2022/09/20 12:31:55;;;;;;;1.52;1.10;;;;;14.90;94549.00;;;;7395371;19;20453;-73
2022/09/20 12:34:35;;;;;;;5.18;1.25;;;;;15.10;94542.00;;;;7392161;19;20839;-76
2022/09/20 12:37:03;;;;;;;2.67;1.33;;;;;15.90;94551.00;;;;7390860;19;20128;-73
2022/09/20 12:39:48;;;;;;;5.03;1.40;;;;;16.20;94550.00;;;;7391225;19;20683;-73
2022/09/20 12:42:27;;;;;;;3.22;1.30;;;;;16.30;94562.00;;;;7392388;19;20129;-73
2022/09/20 12:45:16;;;;;;;2.08;1.08;;;;;14.10;94560.00;;;;7392596;19;20222;-73
2022/09/20 12:47:54;;;;;;;1.98;1.00;;;;;13.80;94565.00;;;;7392537;19;20140;-74
2022/09/20 12:53:15;;;;;;;2.45;1.23;;;;;13.10;94574.00;;;;7395123;19;20132;-74
2022/09/20 12:56:03;;;;;;;5.75;1.35;;;;;13.10;94576.00;;;;7394469;19;20150;-74
2022/09/20 12:58:37;;;;;;;2.83;1.20;;;;;12.80;94557.00;;;;7391189;19;20620;-74
2022/09/20 13:01:11;;;;;;;4.40;1.17;;;;;13.70;94564.00;;;;7392874;19;20141;-75
2022/09/20 13:03:42;;;;;;;4.55;1.20;;;;;13.70;94563.00;;;;7390911;19;20144;-72
2022/09/20 13:06:21;;;;;;;4.90;1.35;;;;;12.80;94570.00;;;;7389103;19;20152;-74
2022/09/20 13:09:07;;;;;;;2.42;1.02;;;;;12.70;94575.00;;;;7393174;19;20166;-74
2022/09/20 13:11:54;;;;;;;4.13;1.30;;;;;12.80;94578.00;;;;7396647;19;20132;-74
2022/09/20 13:14:31;;;;;;;2.80;1.25;;;;;12.40;94577.00;;;;7395567;19;20453;-73
2022/09/20 13:17:23;;;;;;;4.22;1.20;;;;;12.30;94578.00;;;;7397714;19;20464;-75
2022/09/20 13:19:58;;;;;;;2.63;1.67;;;;;12.00;94583.00;;;;7396913;19;20131;-74
2022/09/20 13:22:42;;;;;;;2.47;1.30;;;;;12.40;94572.00;;;;7391695;19;20163;-75
2022/09/20 13:25:20;;;;;;;4.20;1.23;;;;;12.80;94575.00;;;;7394697;19;20170;-73
2022/09/20 13:28:06;;;;;;;4.32;1.23;;;;;13.30;94575.00;;;;7394916;19;20197;-74
2022/09/20 13:30:47;;;;;;;2.35;0.98;;;;;13.00;94578.00;;;;7393121;19;20144;-74
2022/09/20 13:33:24;;;;;;;2.88;1.17;;;;;12.60;94575.00;;;;7395719;19;20196;-74
2022/09/20 13:35:58;;;;;;;3.72;1.23;;;;;13.30;94567.00;;;;7394502;19;20152;-75
2022/09/20 13:38:30;;;;;;;3.50;1.50;;;;;13.60;94571.00;;;;7391107;19;20161;-75
2022/09/20 13:41:11;;;;;;;3.17;1.55;;;;;13.80;94569.00;;;;7393888;19;20144;-73
2022/09/20 13:43:44;;;;;;;4.20;1.40;;;;;13.30;94561.00;;;;7393741;19;20655;-73
2022/09/20 13:46:28;;;;;;;4.93;1.42;;;;;14.10;94552.00;;;;7391412;19;20133;-74
2022/09/20 13:49:14;;;;;;;4.25;1.30;;;;;14.40;94554.00;;;;7392297;19;20172;-74
2022/09/20 13:51:49;;;;;;;4.47;1.25;;;;;14.50;94571.00;;;;7395705;19;20141;-74
2022/09/20 13:54:35;;;;;;;2.30;1.00;;;;;14.40;94581.00;;;;7391240;19;20513;-74
2022/09/20 13:57:19;;;;;;;1.85;1.15;;;;;13.70;94581.00;;;;7389863;19;20635;-75